Time;durP1;ratioP1;P1;durP2;ratioP2;P2;SDS_P1;SDS_P2;PMS_P1;PMS_P2;Temp;Humidity;BMP_temperature;BMP_pressure;BME280_temperature;BME280_humidity;BME280_pressure;Samples;Min_cycle;Max_cycle;Signal;HPM_P1;HPM_P2
2021/09/26 00:01:41;;;;;;;;;;;;;;;;;;5093698;28;19924;-65
2021/09/26 00:04:08;;;;;;;;;;;;;;;;;;5093188;28;19928;-65
2021/09/26 00:06:35;;;;;;;;;;;;;;;;;;5093679;28;20315;-65
2021/09/26 00:09:02;;;;;;;;;;;;;;;;;;5093403;28;19947;-65
2021/09/26 00:11:29;;;;;;;;;;;;;;;;;;5093284;28;19928;-66
2021/09/26 00:13:56;;;;;;;;;;;;;;;;;;5093021;28;19924;-66
2021/09/26 00:16:23;;;;;;;;;;;;;;;;;;5093403;28;19931;-66
2021/09/26 00:18:50;;;;;;;;;;;;;;;;;;5093279;28;19924;-66
2021/09/26 00:21:17;;;;;;;;;;;;;;;;;;5092893;28;19924;-65
2021/09/26 00:23:44;;;;;;;;;;;;;;;;;;5093112;28;20395;-65
2021/09/26 00:26:11;;;;;;;;;;;;;;;;;;5092694;28;19924;-65
2021/09/26 00:28:38;;;;;;;;;;;;;;;;;;5093179;28;20148;-65
2021/09/26 00:31:05;;;;;;;;;;;;;;;;;;5092403;28;19924;-66
2021/09/26 00:33:32;;;;;;;;;;;;;;;;;;5092992;28;20276;-65
2021/09/26 00:35:59;;;;;;;;;;;;;;;;;;5092869;28;19935;-65
2021/09/26 00:38:26;;;;;;;;;;;;;;;;;;5092811;28;19924;-65
2021/09/26 00:40:53;;;;;;;;;;;;;;;;;;5092337;28;19932;-65
2021/09/26 00:43:20;;;;;;;;;;;;;;;;;;5090733;28;19931;-66
2021/09/26 00:45:47;;;;;;;;;;;;;;;;;;5092610;28;19924;-66
2021/09/26 00:48:14;;;;;;;;;;;;;;;;;;5092485;28;19930;-66
2021/09/26 00:50:41;;;;;;;;;;;;;;;;;;5092280;28;20023;-65
2021/09/26 00:53:08;;;;;;;;;;;;;;;;;;5092353;28;19924;-65
2021/09/26 00:55:35;;;;;;;;;;;;;;;;;;5091669;28;20455;-65
2021/09/26 00:58:02;;;;;;;;;;;;;;;;;;5092500;28;19971;-65
2021/09/26 01:00:29;;;;;;;;;;;;;;;;;;5092052;28;19950;-66
2021/09/26 01:02:56;;;;;;;;;;;;;;;;;;5092365;28;19931;-66
2021/09/26 01:05:23;;;;;;;;;;;;;;;;;;5092090;28;19930;-66
2021/09/26 01:07:49;;;;;;;;;;;;;;;;;;5092129;28;19931;-66
2021/09/26 01:10:16;;;;;;;;;;;;;;;;;;5091967;28;20379;-66
2021/09/26 01:12:43;;;;;;;;;;;;;;;;;;5090693;28;19924;-66
2021/09/26 01:15:11;;;;;;;;;;;;;;;;;;5091858;28;20014;-66
2021/09/26 01:17:38;;;;;;;;;;;;;;;;;;5091778;28;20136;-66
2021/09/26 01:20:05;;;;;;;;;;;;;;;;;;5091770;28;20292;-66
2021/09/26 01:22:32;;;;;;;;;;;;;;;;;;5091443;28;19924;-66
2021/09/26 01:24:59;;;;;;;;;;;;;;;;;;5092017;28;19924;-66
2021/09/26 01:27:26;;;;;;;;;;;;;;;;;;5091749;28;20102;-66
2021/09/26 01:29:53;;;;;;;;;;;;;;;;;;5091617;28;19924;-66
2021/09/26 01:32:20;;;;;;;;;;;;;;;;;;5091491;28;20306;-66
2021/09/26 01:34:47;;;;;;;;;;;;;;;;;;5091707;28;20076;-66
2021/09/26 01:37:14;;;;;;;;;;;;;;;;;;5091467;28;20016;-66
2021/09/26 01:39:41;;;;;;;;;;;;;;;;;;5091310;28;19924;-66
2021/09/26 01:42:08;;;;;;;;;;;;;;;;;;5091316;28;19923;-65
2021/09/26 01:44:35;;;;;;;;;;;;;;;;;;5091700;28;19924;-66
2021/09/26 01:47:02;;;;;;;;;;;;;;;;;;5091662;28;19924;-66
2021/09/26 01:49:29;;;;;;;;;;;;;;;;;;5091223;28;19934;-66
2021/09/26 01:51:56;;;;;;;;;;;;;;;;;;5091325;28;19927;-66
2021/09/26 01:54:23;;;;;;;;;;;;;;;;;;5091550;28;19924;-66
2021/09/26 01:56:50;;;;;;;;;;;;;;;;;;5091509;28;19924;-66
2021/09/26 01:59:18;;;;;;;;;;;;;;;;;;5091358;28;20306;-66
2021/09/26 02:01:45;;;;;;;;;;;;;;;;;;5091161;28;20153;-66
2021/09/26 02:04:12;;;;;;;;;;;;;;;;;;5091165;28;20369;-66
2021/09/26 02:06:39;;;;;;;;;;;;;;;;;;5090684;28;19928;-65
2021/09/26 02:09:06;;;;;;;;;;;;;;;;;;5091274;28;19930;-65
2021/09/26 02:11:33;;;;;;;;;;;;;;;;;;5090789;28;19924;-65
2021/09/26 02:14:00;;;;;;;;;;;;;;;;;;5090900;28;20005;-66
2021/09/26 02:16:27;;;;;;;;;;;;;;;;;;5091010;28;20021;-66
2021/09/26 02:18:54;;;;;;;;;;;;;;;;;;5090895;28;19994;-66
2021/09/26 02:21:21;;;;;;;;;;;;;;;;;;5090723;28;19931;-65
2021/09/26 02:23:48;;;;;;;;;;;;;;;;;;5091168;28;19924;-66
2021/09/26 02:26:15;;;;;;;;;;;;;;;;;;5091333;28;20059;-66
2021/09/26 02:28:42;;;;;;;;;;;;;;;;;;5088998;28;19924;-66
2021/09/26 02:31:09;;;;;;;;;;;;;;;;;;5090591;28;20323;-66
2021/09/26 02:33:36;;;;;;;;;;;;;;;;;;5091020;28;19928;-66
2021/09/26 02:36:03;;;;;;;;;;;;;;;;;;5091216;28;19963;-66
2021/09/26 02:38:30;;;;;;;;;;;;;;;;;;5091028;28;19924;-66
2021/09/26 02:40:57;;;;;;;;;;;;;;;;;;5090865;28;19931;-66
2021/09/26 02:43:24;;;;;;;;;;;;;;;;;;5090858;28;19931;-66
2021/09/26 02:45:51;;;;;;;;;;;;;;;;;;5090673;28;20304;-66
2021/09/26 02:48:18;;;;;;;;;;;;;;;;;;5091368;28;19929;-66
2021/09/26 02:50:45;;;;;;;;;;;;;;;;;;5090264;28;20118;-65
2021/09/26 02:53:12;;;;;;;;;;;;;;;;;;5090841;28;19924;-65
2021/09/26 02:55:39;;;;;;;;;;;;;;;;;;5090887;28;19964;-65
2021/09/26 02:58:06;;;;;;;;;;;;;;;;;;5090807;28;19930;-65
2021/09/26 03:00:33;;;;;;;;;;;;;;;;;;5090556;28;19932;-65
2021/09/26 03:03:00;;;;;;;;;;;;;;;;;;5090794;28;19924;-65
2021/09/26 03:05:27;;;;;;;;;;;;;;;;;;5091139;28;20308;-64
2021/09/26 03:07:54;;;;;;;;;;;;;;;;;;5090870;28;19947;-65
2021/09/26 03:10:21;;;;;;;;;;;;;;;;;;5090732;28;19925;-65
2021/09/26 03:12:48;;;;;;;;;;;;;;;;;;5088436;28;20010;-65
2021/09/26 03:15:15;;;;;;;;;;;;;;;;;;5090617;28;20340;-66
2021/09/26 03:17:42;;;;;;;;;;;;;;;;;;5092380;28;19924;-65
2021/09/26 03:20:09;;;;;;;;;;;;;;;;;;5094189;28;19967;-65
2021/09/26 03:22:36;;;;;;;;;;;;;;;;;;5094158;28;19931;-65
2021/09/26 03:25:03;;;;;;;;;;;;;;;;;;5093996;28;19928;-65
2021/09/26 03:27:30;;;;;;;;;;;;;;;;;;5094081;28;19924;-65
2021/09/26 03:29:57;;;;;;;;;;;;;;;;;;5093955;28;19928;-64
2021/09/26 03:32:24;;;;;;;;;;;;;;;;;;5093929;28;20002;-65
2021/09/26 03:34:51;;;;;;;;;;;;;;;;;;5094081;28;19924;-65
2021/09/26 03:37:18;;;;;;;;;;;;;;;;;;5094219;28;19924;-65
2021/09/26 03:39:45;;;;;;;;;;;;;;;;;;5094128;28;19931;-65
2021/09/26 03:42:12;;;;;;;;;;;;;;;;;;5094235;28;20356;-66
2021/09/26 03:44:39;;;;;;;;;;;;;;;;;;5093994;28;19924;-66
2021/09/26 03:47:06;;;;;;;;;;;;;;;;;;5093946;28;19924;-66
2021/09/26 03:49:33;;;;;;;;;;;;;;;;;;5093680;28;19925;-66
2021/09/26 03:52:00;;;;;;;;;;;;;;;;;;5093648;28;19969;-66
2021/09/26 03:54:27;;;;;;;;;;;;;;;;;;5093864;28;19932;-66
2021/09/26 03:56:54;;;;;;;;;;;;;;;;;;5093583;28;19930;-67
2021/09/26 03:59:21;;;;;;;;;;;;;;;;;;5093502;28;20276;-66
2021/09/26 04:01:48;;;;;;;;;;;;;;;;;;5093540;28;19924;-67
2021/09/26 04:04:15;;;;;;;;;;;;;;;;;;5093402;28;19936;-67
2021/09/26 04:06:42;;;;;;;;;;;;;;;;;;5093370;28;20485;-67
2021/09/26 04:09:08;;;;;;;;;;;;;;;;;;5093075;28;20140;-66
2021/09/26 04:11:35;;;;;;;;;;;;;;;;;;5093405;28;19928;-67
2021/09/26 04:14:02;;;;;;;;;;;;;;;;;;5093222;28;19935;-67
2021/09/26 04:16:29;;;;;;;;;;;;;;;;;;5093097;28;20409;-67
2021/09/26 04:18:56;;;;;;;;;;;;;;;;;;5093326;28;20273;-67
2021/09/26 04:21:23;;;;;;;;;;;;;;;;;;5092814;28;19924;-66
2021/09/26 04:23:50;;;;;;;;;;;;;;;;;;5093177;28;19924;-66
2021/09/26 04:26:17;;;;;;;;;;;;;;;;;;5092735;28;20406;-66
2021/09/26 04:28:44;;;;;;;;;;;;;;;;;;5092275;28;20019;-67
2021/09/26 04:31:11;;;;;;;;;;;;;;;;;;5092534;28;19931;-65
2021/09/26 04:33:38;;;;;;;;;;;;;;;;;;5092937;28;19924;-66
2021/09/26 04:36:05;;;;;;;;;;;;;;;;;;5092960;28;19931;-66
2021/09/26 04:38:32;;;;;;;;;;;;;;;;;;5092711;28;19924;-67
2021/09/26 04:40:59;;;;;;;;;;;;;;;;;;5093064;28;19934;-67
2021/09/26 04:43:26;;;;;;;;;;;;;;;;;;5092473;28;20299;-67
2021/09/26 04:45:53;;;;;;;;;;;;;;;;;;5092768;28;19924;-66
2021/09/26 04:48:20;;;;;;;;;;;;;;;;;;5092458;28;19931;-64
2021/09/26 04:50:47;;;;;;;;;;;;;;;;;;5092173;28;19925;-66
2021/09/26 04:53:14;;;;;;;;;;;;;;;;;;5092337;28;19928;-66
2021/09/26 04:55:41;;;;;;;;;;;;;;;;;;5093286;28;19924;-65
2021/09/26 04:58:10;;;;;;;;;;;;;;;;;;5086025;28;19924;-66
2021/09/26 05:00:37;;;;;;;;;;;;;;;;;;5089440;28;19930;-67
2021/09/26 05:03:04;;;;;;;;;;;;;;;;;;5092377;28;19930;-67
2021/09/26 05:05:31;;;;;;;;;;;;;;;;;;5092341;28;19924;-67
2021/09/26 05:07:58;;;;;;;;;;;;;;;;;;5092995;28;19930;-65
2021/09/26 05:10:25;;;;;;;;;;;;;;;;;;5092718;28;20409;-66
2021/09/26 05:12:52;;;;;;;;;;;;;;;;;;5092473;28;20031;-67
2021/09/26 05:15:19;;;;;;;;;;;;;;;;;;5092647;28;19930;-65
2021/09/26 05:17:46;;;;;;;;;;;;;;;;;;5092397;28;19924;-67
2021/09/26 05:20:13;;;;;;;;;;;;;;;;;;5091638;28;20299;-66
2021/09/26 05:22:40;;;;;;;;;;;;;;;;;;5091984;28;20011;-66
2021/09/26 05:25:07;;;;;;;;;;;;;;;;;;5092214;28;19931;-66
2021/09/26 05:27:34;;;;;;;;;;;;;;;;;;5092011;28;19931;-67
2021/09/26 05:30:02;;;;;;;;;;;;;;;;;;5091882;28;20372;-66
2021/09/26 05:32:29;;;;;;;;;;;;;;;;;;5091720;28;20544;-66
2021/09/26 05:34:56;;;;;;;;;;;;;;;;;;5092259;28;19928;-67
2021/09/26 05:37:23;;;;;;;;;;;;;;;;;;5091616;28;19924;-65
2021/09/26 05:39:50;;;;;;;;;;;;;;;;;;5091402;28;19928;-66
2021/09/26 05:42:17;;;;;;;;;;;;;;;;;;5091693;28;19924;-66
2021/09/26 05:44:44;;;;;;;;;;;;;;;;;;5091319;28;19924;-67
2021/09/26 05:47:14;;;;;;;;;;;;;;;;;;5091286;28;20356;-67
2021/09/26 05:49:41;;;;;;;;;;;;;;;;;;5091272;28;19931;-68
2021/09/26 05:52:08;;;;;;;;;;;;;;;;;;5091477;28;20111;-65
2021/09/26 05:54:35;;;;;;;;;;;;;;;;;;5091378;28;19967;-67
2021/09/26 05:57:02;;;;;;;;;;;;;;;;;;5091293;28;19951;-65
2021/09/26 05:59:30;;;;;;;;;;;;;;;;;;5091605;28;19932;-67
2021/09/26 06:01:59;;;;;;;;;;;;;;;;;;5088662;28;20206;-66
2021/09/26 06:04:26;;;;;;;;;;;;;;;;;;5091172;28;20403;-67
2021/09/26 06:06:53;;;;;;;;;;;;;;;;;;5091349;28;19924;-65
2021/09/26 06:09:20;;;;;;;;;;;;;;;;;;5091391;28;19928;-65
2021/09/26 06:11:47;;;;;;;;;;;;;;;;;;5089139;28;19931;-65
2021/09/26 06:14:14;;;;;;;;;;;;;;;;;;5082575;28;19969;-66
2021/09/26 06:16:41;;;;;;;;;;;;;;;;;;5091299;28;19924;-67
2021/09/26 06:19:08;;;;;;;;;;;;;;;;;;5090592;28;19977;-66
2021/09/26 06:21:35;;;;;;;;;;;;;;;;;;5090669;28;19931;-65
2021/09/26 06:24:02;;;;;;;;;;;;;;;;;;5091254;28;19932;-67
2021/09/26 06:26:29;;;;;;;;;;;;;;;;;;5091238;28;19928;-67
2021/09/26 06:28:56;;;;;;;;;;;;;;;;;;5090913;28;19930;-66
2021/09/26 06:31:22;;;;;;;;;;;;;;;;;;5091315;28;19924;-66
2021/09/26 06:33:49;;;;;;;;;;;;;;;;;;5090794;28;19954;-65
2021/09/26 06:36:16;;;;;;;;;;;;;;;;;;5091185;28;19924;-65
2021/09/26 06:38:43;;;;;;;;;;;;;;;;;;5091218;28;19924;-66
2021/09/26 06:41:12;;;;;;;;;;;;;;;;;;5090648;28;19932;-66
2021/09/26 06:43:39;;;;;;;;;;;;;;;;;;5090594;28;20019;-66
2021/09/26 06:46:06;;;;;;;;;;;;;;;;;;5090996;28;20345;-66
2021/09/26 06:48:35;;;;;;;;;;;;;;;;;;5091145;28;19924;-67
2021/09/26 06:51:02;;;;;;;;;;;;;;;;;;5090906;28;19930;-67
2021/09/26 06:53:29;;;;;;;;;;;;;;;;;;5093726;28;20249;-67
2021/09/26 06:55:56;;;;;;;;;;;;;;;;;;5094682;28;19936;-67
2021/09/26 06:58:24;;;;;;;;;;;;;;;;;;5094936;28;19931;-67
2021/09/26 07:00:51;;;;;;;;;;;;;;;;;;5094446;28;19924;-65
2021/09/26 07:03:18;;;;;;;;;;;;;;;;;;5094391;28;19924;-66
2021/09/26 07:05:45;;;;;;;;;;;;;;;;;;5095305;28;20368;-64
2021/09/26 07:08:12;;;;;;;;;;;;;;;;;;5094593;28;19924;-64
2021/09/26 07:10:39;;;;;;;;;;;;;;;;;;5094366;28;20467;-65
2021/09/26 07:13:06;;;;;;;;;;;;;;;;;;5094920;28;19931;-64
2021/09/26 07:15:34;;;;;;;;;;;;;;;;;;5095138;28;19947;-66
2021/09/26 07:18:01;;;;;;;;;;;;;;;;;;5094809;28;19924;-65
2021/09/26 07:20:28;;;;;;;;;;;;;;;;;;5093987;28;19930;-63
2021/09/26 07:22:55;;;;;;;;;;;;;;;;;;5093975;28;19931;-65
2021/09/26 07:25:22;;;;;;;;;;;;;;;;;;5094503;28;20307;-65
2021/09/26 07:27:49;;;;;;;;;;;;;;;;;;5089794;28;19924;-64
2021/09/26 07:30:16;;;;;;;;;;;;;;;;;;5092949;28;20217;-63
2021/09/26 07:32:43;;;;;;;;;;;;;;;;;;5094053;28;20276;-65
2021/09/26 07:35:10;;;;;;;;;;;;;;;;;;5094143;28;19928;-64
2021/09/26 07:37:37;;;;;;;;;;;;;;;;;;5093870;28;19924;-64
2021/09/26 07:40:04;;;;;;;;;;;;;;;;;;5093969;28;19924;-64
2021/09/26 07:42:31;;;;;;;;;;;;;;;;;;5093775;28;20015;-64
2021/09/26 07:45:02;;;;;;;;;;;;;;;;;;5094171;28;19924;-63
2021/09/26 07:47:29;;;;;;;;;;;;;;;;;;5093659;28;19978;-64
2021/09/26 07:49:56;;;;;;;;;;;;;;;;;;5093404;28;20018;-64
2021/09/26 07:52:23;;;;;;;;;;;;;;;;;;5093327;28;20017;-66
2021/09/26 07:54:50;;;;;;;;;;;;;;;;;;5094046;28;20300;-64
2021/09/26 07:57:19;;;;;;;;;;;;;;;;;;5093947;28;19970;-66
2021/09/26 07:59:46;;;;;;;;;;;;;;;;;;5093502;28;20390;-64
2021/09/26 08:02:13;;;;;;;;;;;;;;;;;;5093520;28;19963;-65
2021/09/26 08:04:40;;;;;;;;;;;;;;;;;;5092020;28;20437;-64
2021/09/26 08:07:07;;;;;;;;;;;;;;;;;;5093593;28;19930;-63
2021/09/26 08:09:34;;;;;;;;;;;;;;;;;;5093320;28;20452;-64
2021/09/26 08:12:01;;;;;;;;;;;;;;;;;;5093292;28;19928;-65
2021/09/26 08:14:28;;;;;;;;;;;;;;;;;;5093192;28;19924;-65
2021/09/26 08:16:55;;;;;;;;;;;;;;;;;;5093108;28;19924;-66
2021/09/26 08:19:22;;;;;;;;;;;;;;;;;;5092561;28;19928;-65
2021/09/26 08:21:49;;;;;;;;;;;;;;;;;;5092860;28;19924;-64
2021/09/26 08:24:16;;;;;;;;;;;;;;;;;;5093022;28;19924;-64
2021/09/26 08:26:43;;;;;;;;;;;;;;;;;;5092656;28;20372;-64
2021/09/26 08:29:11;;;;;;;;;;;;;;;;;;5092836;28;20367;-66
2021/09/26 08:31:38;;;;;;;;;;;;;;;;;;5092749;28;19925;-64
2021/09/26 08:34:05;;;;;;;;;;;;;;;;;;5093022;28;19928;-64
2021/09/26 08:36:32;;;;;;;;;;;;;;;;;;5092732;28;19975;-66
2021/09/26 08:38:59;;;;;;;;;;;;;;;;;;5093095;28;19924;-65
2021/09/26 08:41:26;;;;;;;;;;;;;;;;;;5092413;28;19924;-64
2021/09/26 08:43:53;;;;;;;;;;;;;;;;;;5088221;28;19931;-65
2021/09/26 08:46:20;;;;;;;;;;;;;;;;;;5092715;28;19928;-64
2021/09/26 08:48:47;;;;;;;;;;;;;;;;;;5092602;28;19924;-65
2021/09/26 08:51:14;;;;;;;;;;;;;;;;;;5092304;28;20281;-64
2021/09/26 08:53:41;;;;;;;;;;;;;;;;;;5092510;28;19928;-65
2021/09/26 08:56:08;;;;;;;;;;;;;;;;;;5092596;28;19924;-65
2021/09/26 08:58:35;;;;;;;;;;;;;;;;;;5093070;28;20273;-64
2021/09/26 09:01:02;;;;;;;;;;;;;;;;;;5092325;28;20434;-64
2021/09/26 09:03:29;;;;;;;;;;;;;;;;;;5092808;28;19924;-63
2021/09/26 09:05:56;;;;;;;;;;;;;;;;;;5093030;28;19930;-65
2021/09/26 09:08:23;;;;;;;;;;;;;;;;;;5093079;28;19928;-66
2021/09/26 09:10:50;;;;;;;;;;;;;;;;;;5092280;28;20315;-66
2021/09/26 09:13:17;;;;;;;;;;;;;;;;;;5092092;28;19924;-65
2021/09/26 09:15:43;;;;;;;;;;;;;;;;;;5091975;28;19924;-66
2021/09/26 09:18:10;;;;;;;;;;;;;;;;;;5092629;28;19928;-65
2021/09/26 09:20:37;;;;;;;;;;;;;;;;;;5092145;28;19925;-63
2021/09/26 09:23:04;;;;;;;;;;;;;;;;;;5092144;28;20380;-64
2021/09/26 09:25:31;;;;;;;;;;;;;;;;;;5091824;28;19930;-64
2021/09/26 09:27:58;;;;;;;;;;;;;;;;;;5091461;28;19930;-66
2021/09/26 09:30:25;;;;;;;;;;;;;;;;;;5091795;28;19931;-66
2021/09/26 09:32:52;;;;;;;;;;;;;;;;;;5091781;28;19924;-65
2021/09/26 09:35:19;;;;;;;;;;;;;;;;;;5091646;28;19925;-66
2021/09/26 09:37:46;;;;;;;;;;;;;;;;;;5091475;28;19930;-67
2021/09/26 09:40:15;;;;;;;;;;;;;;;;;;5091272;28;19924;-65
2021/09/26 09:42:42;;;;;;;;;;;;;;;;;;5108136;22;19973;-65
2021/09/26 09:45:09;;;;;;;;;;;;;;;;;;5116880;27;20010;-66
2021/09/26 09:47:36;;;;;;;;;;;;;;;;;;5116722;27;19924;-66
2021/09/26 09:50:03;;;;;;;;;;;;;;;;;;5120204;27;20358;-66
2021/09/26 09:52:30;;;;;;;;;;;;;;;;;;5112987;27;19946;-66
2021/09/26 09:54:57;;;;;;;;;;;;;;;;;;5096389;28;20290;-66
2021/09/26 09:57:26;;;;;;;;;;;;;;;;;;5094256;28;19924;-66
2021/09/26 09:59:53;;;;;;;;;;;;;;;;;;5099902;28;20382;-66
2021/09/26 10:02:20;;;;;;;;;;;;;;;;;;5096284;28;19931;-66
2021/09/26 10:04:47;;;;;;;;;;;;;;;;;;5096339;28;19931;-66
2021/09/26 10:07:14;;;;;;;;;;;;;;;;;;5096031;28;19931;-66
2021/09/26 10:09:41;;;;;;;;;;;;;;;;;;5099286;28;19924;-65
2021/09/26 10:12:09;;;;;;;;;;;;;;;;;;5096304;28;19982;-66
2021/09/26 10:14:37;;;;;;;;;;;;;;;;;;5096425;28;19924;-66
2021/09/26 10:17:04;;;;;;;;;;;;;;;;;;5095916;28;19924;-66
2021/09/26 10:19:31;;;;;;;;;;;;;;;;;;5099256;28;20288;-66
2021/09/26 10:21:58;;;;;;;;;;;;;;;;;;5096684;28;19928;-66
2021/09/26 10:24:25;;;;;;;;;;;;;;;;;;5096025;28;20295;-66
2021/09/26 10:26:52;;;;;;;;;;;;;;;;;;5096064;28;19925;-65
2021/09/26 10:29:18;;;;;;;;;;;;;;;;;;5102696;28;20193;-66
2021/09/26 10:31:46;;;;;;;;;;;;;;;;;;5101455;28;19924;-66
2021/09/26 10:34:13;;;;;;;;;;;;;;;;;;5100089;28;19924;-66
2021/09/26 10:36:40;;;;;;;;;;;;;;;;;;5100166;28;19924;-66
2021/09/26 10:39:07;;;;;;;;;;;;;;;;;;5102638;28;19935;-66
2021/09/26 10:41:34;;;;;;;;;;;;;;;;;;5100916;28;20459;-66
2021/09/26 10:44:03;;;;;;;;;;;;;;;;;;5099597;28;20006;-66
2021/09/26 10:46:30;;;;;;;;;;;;;;;;;;5099565;28;20384;-66
2021/09/26 10:48:57;;;;;;;;;;;;;;;;;;5102446;28;20307;-66
2021/09/26 10:51:24;;;;;;;;;;;;;;;;;;5100588;28;19923;-67
2021/09/26 10:53:51;;;;;;;;;;;;;;;;;;5099434;28;19924;-66
2021/09/26 10:56:18;;;;;;;;;;;;;;;;;;5099412;28;19924;-66
2021/09/26 10:58:45;;;;;;;;;;;;;;;;;;5101963;28;19924;-65
2021/09/26 11:01:12;;;;;;;;;;;;;;;;;;5100531;28;19924;-66
2021/09/26 11:03:41;;;;;;;;;;;;;;;;;;5099155;28;20396;-66
2021/09/26 11:06:08;;;;;;;;;;;;;;;;;;5099343;28;19924;-66
2021/09/26 11:08:35;;;;;;;;;;;;;;;;;;5101534;28;19927;-66
2021/09/26 11:11:02;;;;;;;;;;;;;;;;;;5100829;28;19931;-66
2021/09/26 11:13:29;;;;;;;;;;;;;;;;;;5098957;28;20378;-66
2021/09/26 11:15:56;;;;;;;;;;;;;;;;;;5099712;28;19931;-66
2021/09/26 11:18:23;;;;;;;;;;;;;;;;;;5101290;28;20007;-66
2021/09/26 11:20:50;;;;;;;;;;;;;;;;;;5099122;28;19924;-67
2021/09/26 11:23:17;;;;;;;;;;;;;;;;;;5098991;28;19936;-66
2021/09/26 11:25:44;;;;;;;;;;;;;;;;;;5099022;28;20292;-66
2021/09/26 11:28:11;;;;;;;;;;;;;;;;;;5100622;28;19924;-66
2021/09/26 11:30:38;;;;;;;;;;;;;;;;;;5100912;28;19923;-66
2021/09/26 11:33:05;;;;;;;;;;;;;;;;;;5098586;28;20011;-66
2021/09/26 11:35:32;;;;;;;;;;;;;;;;;;5099112;28;19925;-66
2021/09/26 11:38:02;;;;;;;;;;;;;;;;;;5100911;28;19928;-66
2021/09/26 11:40:31;;;;;;;;;;;;;;;;;;5101182;28;19928;-67
2021/09/26 11:42:58;;;;;;;;;;;;;;;;;;5098455;28;20399;-67
2021/09/26 11:45:24;;;;;;;;;;;;;;;;;;5098631;28;19924;-67
2021/09/26 11:47:51;;;;;;;;;;;;;;;;;;5100607;28;19928;-67
2021/09/26 11:50:18;;;;;;;;;;;;;;;;;;5100389;28;19923;-67
2021/09/26 11:52:45;;;;;;;;;;;;;;;;;;5098357;28;19924;-67
2021/09/26 11:55:13;;;;;;;;;;;;;;;;;;5098493;28;19930;-67
2021/09/26 11:57:42;;;;;;;;;;;;;;;;;;5100003;28;19975;-66
2021/09/26 12:00:09;;;;;;;;;;;;;;;;;;5100009;28;19927;-66
2021/09/26 12:02:36;;;;;;;;;;;;;;;;;;5098259;28;19931;-67
2021/09/26 12:05:03;;;;;;;;;;;;;;;;;;5098348;28;20163;-67
2021/09/26 12:07:31;;;;;;;;;;;;;;;;;;5100299;28;19924;-66
2021/09/26 12:09:58;;;;;;;;;;;;;;;;;;5100309;28;19924;-67
2021/09/26 12:12:26;;;;;;;;;;;;;;;;;;5098041;28;19924;-66
2021/09/26 12:14:53;;;;;;;;;;;;;;;;;;5098141;28;19930;-66
2021/09/26 12:17:19;;;;;;;;;;;;;;;;;;5100100;28;19923;-67
2021/09/26 12:19:46;;;;;;;;;;;;;;;;;;5100395;28;19934;-66
2021/09/26 12:22:13;;;;;;;;;;;;;;;;;;5098098;28;19924;-66
2021/09/26 12:24:40;;;;;;;;;;;;;;;;;;5098025;28;19931;-66
2021/09/26 12:27:07;;;;;;;;;;;;;;;;;;5099672;28;20010;-66
2021/09/26 12:29:34;;;;;;;;;;;;;;;;;;5097756;28;20014;-66
2021/09/26 12:32:01;;;;;;;;;;;;;;;;;;5098237;28;20311;-65
2021/09/26 12:34:28;;;;;;;;;;;;;;;;;;5097954;28;19989;-65
2021/09/26 12:36:55;;;;;;;;;;;;;;;;;;5099649;28;20314;-66
2021/09/26 12:39:22;;;;;;;;;;;;;;;;;;5100308;28;20395;-66
2021/09/26 12:41:49;;;;;;;;;;;;;;;;;;5097446;28;19934;-66
2021/09/26 12:44:16;;;;;;;;;;;;;;;;;;5097400;28;19942;-65
2021/09/26 12:46:43;;;;;;;;;;;;;;;;;;5098637;28;19924;-66
2021/09/26 12:49:10;;;;;;;;;;;;;;;;;;5100177;28;20022;-66
2021/09/26 12:51:37;;;;;;;;;;;;;;;;;;5096675;28;19932;-66
2021/09/26 12:54:04;;;;;;;;;;;;;;;;;;5097391;28;19924;-66
2021/09/26 12:56:31;;;;;;;;;;;;;;;;;;5097655;28;19928;-67
2021/09/26 12:58:58;;;;;;;;;;;;;;;;;;5100868;28;19924;-66
2021/09/26 13:01:25;;;;;;;;;;;;;;;;;;5097166;28;19931;-66
2021/09/26 13:03:51;;;;;;;;;;;;;;;;;;5097569;28;19924;-66
2021/09/26 13:06:18;;;;;;;;;;;;;;;;;;5097864;28;19924;-66
2021/09/26 13:08:45;;;;;;;;;;;;;;;;;;5101314;28;19924;-66
2021/09/26 13:11:12;;;;;;;;;;;;;;;;;;5097814;28;19924;-66
2021/09/26 13:13:39;;;;;;;;;;;;;;;;;;5099361;28;19928;-66
2021/09/26 13:16:06;;;;;;;;;;;;;;;;;;5099338;28;19930;-66
2021/09/26 13:18:35;;;;;;;;;;;;;;;;;;5100534;28;19930;-66
2021/09/26 13:21:02;;;;;;;;;;;;;;;;;;5097707;28;19979;-66
2021/09/26 13:23:29;;;;;;;;;;;;;;;;;;5097068;28;19934;-66
2021/09/26 13:25:56;;;;;;;;;;;;;;;;;;5097235;28;19924;-66
2021/09/26 13:28:23;;;;;;;;;;;;;;;;;;5100683;28;19923;-66
2021/09/26 13:30:50;;;;;;;;;;;;;;;;;;5096546;28;19935;-66
2021/09/26 13:33:17;;;;;;;;;;;;;;;;;;5096349;28;20352;-66
2021/09/26 13:35:44;;;;;;;;;;;;;;;;;;5096753;28;20306;-66
2021/09/26 13:38:11;;;;;;;;;;;;;;;;;;5099980;28;19950;-65
2021/09/26 13:40:38;;;;;;;;;;;;;;;;;;5096886;28;20299;-66
2021/09/26 13:43:05;;;;;;;;;;;;;;;;;;5091798;28;20298;-66
2021/09/26 13:45:32;;;;;;;;;;;;;;;;;;5096520;28;20409;-66
2021/09/26 13:47:59;;;;;;;;;;;;;;;;;;5099822;28;20375;-65
2021/09/26 13:50:26;;;;;;;;;;;;;;;;;;5096512;28;20366;-65
2021/09/26 13:52:53;;;;;;;;;;;;;;;;;;5096276;28;19935;-66
2021/09/26 13:55:20;;;;;;;;;;;;;;;;;;5096513;28;19928;-66
2021/09/26 13:57:47;;;;;;;;;;;;;;;;;;5099654;28;20383;-67
2021/09/26 14:00:14;;;;;;;;;;;;;;;;;;5097034;28;19924;-66
2021/09/26 14:02:41;;;;;;;;;;;;;;;;;;5096355;28;20020;-66
2021/09/26 14:05:08;;;;;;;;;;;;;;;;;;5096061;28;19964;-66
2021/09/26 14:07:35;;;;;;;;;;;;;;;;;;5099148;28;19928;-66
2021/09/26 14:10:02;;;;;;;;;;;;;;;;;;5097707;28;19930;-66
2021/09/26 14:12:30;;;;;;;;;;;;;;;;;;5096050;28;19931;-66
2021/09/26 14:14:57;;;;;;;;;;;;;;;;;;5095969;28;20408;-67
2021/09/26 14:17:24;;;;;;;;;;;;;;;;;;5098492;28;19960;-66
2021/09/26 14:19:51;;;;;;;;;;;;;;;;;;5096925;28;19923;-66
2021/09/26 14:22:18;;;;;;;;;;;;;;;;;;5096051;28;19930;-65
2021/09/26 14:24:45;;;;;;;;;;;;;;;;;;5095731;28;19930;-66
2021/09/26 14:27:12;;;;;;;;;;;;;;;;;;5098247;28;20015;-66
2021/09/26 14:29:39;;;;;;;;;;;;;;;;;;5097008;28;19923;-65
2021/09/26 14:32:06;;;;;;;;;;;;;;;;;;5095929;28;19923;-65
2021/09/26 14:34:33;;;;;;;;;;;;;;;;;;5095527;28;20037;-66
2021/09/26 14:37:00;;;;;;;;;;;;;;;;;;5098025;28;19934;-67
2021/09/26 14:39:27;;;;;;;;;;;;;;;;;;5097101;28;19924;-66
2021/09/26 14:41:55;;;;;;;;;;;;;;;;;;5095668;28;20015;-65
2021/09/26 14:44:22;;;;;;;;;;;;;;;;;;5095334;28;19924;-66
2021/09/26 14:46:49;;;;;;;;;;;;;;;;;;5097485;28;20031;-66
2021/09/26 14:49:16;;;;;;;;;;;;;;;;;;5097556;28;20010;-66
2021/09/26 14:51:43;;;;;;;;;;;;;;;;;;5095525;28;19924;-66
2021/09/26 14:54:12;;;;;;;;;;;;;;;;;;5095782;28;19928;-66
2021/09/26 14:56:39;;;;;;;;;;;;;;;;;;5097636;28;19924;-66
2021/09/26 14:59:06;;;;;;;;;;;;;;;;;;5084721;28;19923;-65
2021/09/26 15:01:33;;;;;;;;;;;;;;;;;;5095691;28;20027;-65
2021/09/26 15:04:00;;;;;;;;;;;;;;;;;;5090810;28;19924;-66
2021/09/26 15:06:27;;;;;;;;;;;;;;;;;;5097345;28;19931;-66
2021/09/26 15:08:53;;;;;;;;;;;;;;;;;;5095035;28;19924;-69
2021/09/26 15:11:20;;;;;;;;;;;;;;;;;;5092684;28;19934;-66
2021/09/26 15:13:47;;;;;;;;;;;;;;;;;;5094268;28;19931;-65
2021/09/26 15:16:14;;;;;;;;;;;;;;;;;;5096288;28;20035;-66
2021/09/26 15:18:41;;;;;;;;;;;;;;;;;;5101851;28;19924;-66
2021/09/26 15:21:09;;;;;;;;;;;;;;;;;;5099188;28;20023;-66
2021/09/26 15:23:36;;;;;;;;;;;;;;;;;;5094631;28;19928;-66
2021/09/26 15:26:03;;;;;;;;;;;;;;;;;;5100080;28;19930;-66
2021/09/26 15:28:31;;;;;;;;;;;;;;;;;;5094721;28;19924;-66
2021/09/26 15:30:58;;;;;;;;;;;;;;;;;;5098642;28;20122;-68
2021/09/26 15:33:25;;;;;;;;;;;;;;;;;;5096192;28;19931;-65
2021/09/26 15:35:52;;;;;;;;;;;;;;;;;;5097207;28;20433;-65
2021/09/26 15:38:19;;;;;;;;;;;;;;;;;;5101891;28;19924;-66
2021/09/26 15:40:48;;;;;;;;;;;;;;;;;;5098241;28;19924;-65
2021/09/26 15:43:14;;;;;;;;;;;;;;;;;;5110871;22;20294;-68
2021/09/26 15:45:41;;;;;;;;;;;;;;;;;;5094291;28;19928;-65
2021/09/26 15:48:08;;;;;;;;;;;;;;;;;;5093638;28;19930;-64
2021/09/26 15:50:37;;;;;;;;;;;;;;;;;;5093727;28;20015;-65
2021/09/26 15:53:04;;;;;;;;;;;;;;;;;;5093813;28;19924;-65
2021/09/26 15:55:31;;;;;;;;;;;;;;;;;;5093966;28;19927;-67
2021/09/26 15:57:58;;;;;;;;;;;;;;;;;;5093984;28;19924;-66
2021/09/26 16:00:25;;;;;;;;;;;;;;;;;;5094051;28;20181;-65
2021/09/26 16:02:52;;;;;;;;;;;;;;;;;;5093833;28;19928;-64
2021/09/26 16:05:19;;;;;;;;;;;;;;;;;;5093917;28;19924;-65
2021/09/26 16:07:46;;;;;;;;;;;;;;;;;;5093906;28;20042;-67
2021/09/26 16:10:13;;;;;;;;;;;;;;;;;;5093387;28;19924;-66
2021/09/26 16:12:40;;;;;;;;;;;;;;;;;;5088479;28;20303;-65
2021/09/26 16:15:07;;;;;;;;;;;;;;;;;;5090321;28;20011;-67
2021/09/26 16:17:34;;;;;;;;;;;;;;;;;;5093810;28;19924;-65
2021/09/26 16:20:01;;;;;;;;;;;;;;;;;;5093172;28;20194;-65
2021/09/26 16:22:28;;;;;;;;;;;;;;;;;;5093548;28;20007;-65
2021/09/26 16:24:55;;;;;;;;;;;;;;;;;;5092034;28;19935;-65
2021/09/26 16:27:23;;;;;;;;;;;;;;;;;;5093446;28;20019;-67
2021/09/26 16:29:50;;;;;;;;;;;;;;;;;;5092990;28;19932;-67
2021/09/26 16:32:17;;;;;;;;;;;;;;;;;;5093188;28;19924;-65
2021/09/26 16:34:44;;;;;;;;;;;;;;;;;;5093466;28;19924;-66
2021/09/26 16:37:11;;;;;;;;;;;;;;;;;;5091387;28;19924;-66
2021/09/26 16:39:37;;;;;;;;;;;;;;;;;;5093113;28;20353;-65
2021/09/26 16:42:04;;;;;;;;;;;;;;;;;;5093181;28;20307;-65
2021/09/26 16:44:31;;;;;;;;;;;;;;;;;;5092959;28;20379;-66